Time;durP1;ratioP1;P1;durP2;ratioP2;P2;SDS_P1;SDS_P2;PMS_P1;PMS_P2;Temp;Humidity;BMP_temperature;BMP_pressure;BME280_temperature;BME280_humidity;BME280_pressure;Samples;Min_cycle;Max_cycle;Signal;HPM_P1;HPM_P2
2021/12/25 00:02:01;;;;;;;;;8.80;8.00;;;;;13.61;45.93;98628.34;5012474;28;8866;-75
2021/12/25 00:04:31;;;;;;;;;15.00;10.60;;;;;13.73;46.37;98632.41;5044617;28;8889;-76
2021/12/25 00:06:59;;;;;;;;;11.00;10.60;;;;;13.74;46.12;98635.00;5040634;28;8854;-75
2021/12/25 00:09:28;;;;;;;;;11.20;9.80;;;;;13.67;46.46;98638.69;5028009;28;8963;-77
2021/12/25 00:11:57;;;;;;;;;9.60;8.40;;;;;13.46;45.62;98629.66;5024028;28;9004;-75
2021/12/25 00:14:26;;;;;;;;;11.40;9.40;;;;;13.60;46.27;98626.66;5026951;28;9617;-77
2021/12/25 00:16:57;;;;;;;;;7.60;7.60;;;;;13.53;46.79;98628.56;5027785;28;9596;-76
2021/12/25 00:19:27;;;;;;;;;9.80;9.80;;;;;13.53;47.54;98627.72;5007295;28;8855;-77
2021/12/25 00:21:56;;;;;;;;;8.60;8.60;;;;;13.50;48.02;98626.06;5041698;28;9733;-78
2021/12/25 00:24:25;;;;;;;;;9.20;8.20;;;;;13.50;47.43;98628.66;5010304;28;8867;-74
2021/12/25 00:27:00;;;;;;;;;5.40;5.40;;;;;13.53;48.29;98622.47;5027017;28;8994;-75
2021/12/25 00:29:49;;;;;;;;;7.60;6.60;;;;;13.57;47.62;98622.38;5026271;28;8863;-76
2021/12/25 00:32:46;;;;;;;;;6.60;6.60;;;;;13.35;48.40;98624.69;5028375;28;8860;-77
2021/12/25 00:35:16;;;;;;;;;6.20;5.20;;;;;13.49;48.52;98628.72;5009439;28;8892;-75
2021/12/25 00:37:46;;;;;;;;;8.00;5.60;;;;;13.44;48.82;98634.09;5027656;28;8847;-79
2021/12/25 00:40:14;;;;;;;;;5.60;4.20;;;;;13.35;48.26;98634.31;5027538;28;9442;-76
2021/12/25 00:42:43;;;;;;;;;2.80;2.80;;;;;13.41;48.27;98637.63;5028217;28;8889;-74
2021/12/25 00:45:12;;;;;;;;;8.20;6.40;;;;;13.47;47.86;98643.59;5010610;28;8872;-77
2021/12/25 00:47:41;;;;;;;;;9.60;6.20;;;;;13.51;48.41;98651.31;5025329;28;8872;-76
2021/12/25 00:50:10;;;;;;;;;5.40;5.40;;;;;13.53;47.42;98646.91;5028334;28;9617;-75
2021/12/25 00:52:40;;;;;;;;;7.40;6.40;;;;;13.56;47.73;98648.59;5026552;28;8863;-76
2021/12/25 00:55:10;;;;;;;;;10.40;7.40;;;;;13.60;47.87;98651.06;5038236;28;8974;-77
2021/12/25 00:57:40;;;;;;;;;9.00;8.20;;;;;13.62;47.39;98651.91;5028717;28;8899;-75
2021/12/25 01:00:12;;;;;;;;;10.00;8.80;;;;;13.67;47.40;98650.91;5014025;28;8916;-77
2021/12/25 01:02:44;;;;;;;;;8.40;6.20;;;;;13.69;47.21;98651.75;4949400;28;8854;-78
2021/12/25 01:05:16;;;;;;;;;8.00;7.20;;;;;13.73;47.19;98656.00;5030065;28;8866;-76
2021/12/25 01:07:48;;;;;;;;;7.60;7.60;;;;;13.64;46.65;98649.25;5047962;28;8913;-76
2021/12/25 01:10:22;;;;;;;;;5.60;5.40;;;;;13.61;46.73;98647.56;5029894;28;8854;-76
2021/12/25 01:13:01;;;;;;;;;7.80;7.60;;;;;13.54;47.16;98653.03;5030272;28;8880;-75
2021/12/25 01:15:39;;;;;;;;;8.20;7.00;;;;;13.61;46.78;98647.56;4992536;28;9041;-76
2021/12/25 01:18:52;;;;;;;;;5.00;5.00;;;;;13.65;47.97;98657.06;5009335;28;8859;-77
2021/12/25 01:27:54;;;;;;;;;8.20;8.00;;;;;13.61;47.48;98650.19;4950316;28;8964;-76
2021/12/25 01:30:30;;;;;;;;;6.00;6.00;;;;;13.57;48.17;98648.56;4935605;28;8873;-78
2021/12/25 01:33:29;;;;;;;;;10.00;7.80;;;;;13.63;48.44;98648.38;4903889;28;8877;-76
2021/12/25 01:48:44;;;;;;;;;7.00;6.80;;;;;13.53;48.67;98644.28;4837873;29;8874;-78
2021/12/25 01:51:13;;;;;;;;;7.60;7.60;;;;;13.58;49.02;98642.41;4837735;29;9048;-76
2021/12/25 01:53:42;;;;;;;;;7.80;7.80;;;;;13.51;49.62;98635.59;4837279;29;8910;-76
2021/12/25 01:56:13;;;;;;;;;8.00;8.00;;;;;13.54;49.46;98635.53;4837329;29;8901;-76
2021/12/25 01:58:41;;;;;;;;;9.40;8.60;;;;;13.48;49.82;98640.94;4859090;29;9671;-79
2021/12/25 02:01:11;;;;;;;;;11.00;9.00;;;;;13.43;51.19;98632.34;4881068;29;8884;-77
2021/12/25 02:04:00;;;;;;;;;4.40;3.80;;;;;13.43;51.29;98627.13;4899053;29;9538;-77
2021/12/25 02:06:29;;;;;;;;;10.00;10.00;;;;;13.44;50.91;98628.84;4912408;29;8867;-76
2021/12/25 02:08:58;;;;;;;;;11.00;8.80;;;;;13.37;50.92;98617.66;4907225;29;8865;-75
2021/12/25 02:11:28;;;;;;;;;9.00;9.00;;;;;13.29;51.33;98614.38;4914364;29;8873;-75
2021/12/25 02:13:58;;;;;;;;;8.20;6.40;;;;;13.28;51.57;98615.25;4915274;29;8940;-75
2021/12/25 02:16:35;;;;;;;;;9.40;8.00;;;;;13.22;50.93;98612.81;4930904;29;8929;-77
2021/12/25 02:19:09;;;;;;;;;8.40;8.00;;;;;12.98;51.91;98617.75;4949858;28;9006;-78
2021/12/25 02:21:58;;;;;;;;;8.80;6.80;;;;;12.99;51.85;98614.25;4974302;28;8877;-76
2021/12/25 02:24:26;;;;;;;;;6.60;6.60;;;;;12.95;52.03;98611.75;4991164;28;8840;-75
2021/12/25 02:26:56;;;;;;;;;6.60;5.40;;;;;13.02;51.19;98615.91;5011697;28;8893;-78
2021/12/25 02:29:26;;;;;;;;;4.40;4.20;;;;;12.89;51.24;98612.75;5005535;28;9003;-76
2021/12/25 02:31:58;;;;;;;;;5.40;5.40;;;;;12.88;51.22;98616.28;5007585;28;8842;-76
2021/12/25 02:34:27;;;;;;;;;4.40;4.40;;;;;12.83;51.69;98618.16;5015557;28;9076;-76
2021/12/25 02:36:57;;;;;;;;;4.60;3.60;;;;;12.83;51.34;98619.00;5009273;28;8872;-76
2021/12/25 02:39:26;;;;;;;;;7.60;6.80;;;;;12.93;51.10;98614.41;5011340;28;8860;-75
2021/12/25 02:41:54;;;;;;;;;4.20;4.20;;;;;12.76;51.69;98620.06;5023579;28;8862;-80
2021/12/25 02:44:25;;;;;;;;;8.00;5.00;;;;;12.86;51.10;98620.69;5029367;28;8997;-76
2021/12/25 02:46:55;;;;;;;;;3.00;3.00;;;;;12.92;51.01;98620.53;5026720;28;8958;-76
2021/12/25 02:49:24;;;;;;;;;3.20;3.00;;;;;12.92;50.66;98607.44;5003866;28;9720;-76
2021/12/25 02:51:53;;;;;;;;;4.00;3.80;;;;;12.92;50.79;98617.91;4993319;28;8903;-76
2021/12/25 02:54:23;;;;;;;;;3.40;2.80;;;;;12.92;51.18;98612.69;5023763;28;8858;-76
2021/12/25 02:56:52;;;;;;;;;7.00;4.80;;;;;12.94;51.06;98623.97;4998554;28;9012;-76
2021/12/25 02:59:21;;;;;;;;;4.40;3.60;;;;;13.03;50.48;98623.75;5015349;28;9658;-79
2021/12/25 03:02:07;;;;;;;;;3.20;3.20;;;;;13.16;50.23;98626.91;5018507;28;8905;-76
2021/12/25 03:04:37;;;;;;;;;4.60;2.60;;;;;13.15;50.86;98635.66;5032147;28;8870;-78
2021/12/25 03:07:07;;;;;;;;;5.20;4.20;;;;;13.20;50.74;98636.41;5031918;28;8907;-75
2021/12/25 03:09:38;;;;;;;;;7.40;3.20;;;;;13.29;50.36;98634.44;5031868;28;9662;-77
2021/12/25 03:12:09;;;;;;;;;8.00;5.00;;;;;13.33;50.89;98631.75;5025558;28;8876;-76
2021/12/25 03:14:50;;;;;;;;;4.40;4.00;;;;;13.36;50.42;98631.63;5025500;28;8901;-77
2021/12/25 03:17:19;;;;;;;;;7.00;5.40;;;;;13.38;50.19;98631.59;5028457;28;9459;-78
2021/12/25 03:19:48;;;;;;;;;4.00;4.00;;;;;13.41;49.79;98640.25;5038883;28;8858;-76
2021/12/25 03:22:16;;;;;;;;;5.00;5.00;;;;;13.44;50.38;98634.09;5031977;28;8894;-76
2021/12/25 03:24:46;;;;;;;;;3.40;3.40;;;;;13.31;50.55;98638.78;5028793;28;8869;-79
2021/12/25 03:27:18;;;;;;;;;4.20;4.00;;;;;13.29;49.80;98629.19;5028314;28;8870;-76
2021/12/25 03:29:48;;;;;;;;;4.60;3.60;;;;;13.27;50.32;98635.34;5010244;28;8974;-76
2021/12/25 03:32:17;;;;;;;;;3.80;3.80;;;;;13.37;50.07;98645.63;5009806;28;9606;-75
2021/12/25 03:34:46;;;;;;;;;3.00;2.00;;;;;13.42;50.37;98654.19;5022082;28;8856;-76
2021/12/25 03:37:14;;;;;;;;;3.20;3.00;;;;;13.42;50.33;98646.31;5006965;28;8868;-76
2021/12/25 03:39:43;;;;;;;;;8.00;5.00;;;;;13.44;50.77;98641.94;4990368;28;8948;-78
2021/12/25 03:42:13;;;;;;;;;3.40;3.40;;;;;13.30;50.87;98650.13;5022469;28;8977;-76
2021/12/25 03:44:42;;;;;;;;;4.00;4.00;;;;;13.38;51.02;98652.56;5026517;28;8864;-77
2021/12/25 03:47:23;;;;;;;;;3.00;3.00;;;;;13.47;51.16;98649.69;5009871;28;8875;-78
2021/12/25 03:58:17;;;;;;;;;3.00;2.00;;;;;13.48;50.75;98666.25;5025772;28;8880;-75
2021/12/25 04:00:48;;;;;;;;;2.00;2.00;;;;;13.44;51.97;98668.97;5025955;28;9013;-78
2021/12/25 04:03:24;;;;;;;;;29.80;27.00;;;;;13.49;51.63;98668.00;5009621;28;8929;-77
2021/12/25 04:05:53;;;;;;;;;4.80;4.80;;;;;13.43;51.99;98662.00;4994145;28;8836;-74
2021/12/25 04:08:30;;;;;;;;;8.00;8.00;;;;;13.47;51.23;98662.78;5030372;28;8920;-74
2021/12/25 04:11:10;;;;;;;;;14.80;14.00;;;;;13.40;52.34;98663.84;5027438;28;8876;-75
2021/12/25 04:13:40;;;;;;;;;3.00;3.00;;;;;13.43;51.98;98659.38;5017676;28;8883;-75
2021/12/25 04:16:09;;;;;;;;;3.40;2.00;;;;;13.25;52.57;98652.84;4997416;28;8851;-75
2021/12/25 04:18:38;;;;;;;;;2.60;2.40;;;;;13.37;52.89;98661.31;5048554;28;8870;-75
2021/12/25 04:21:07;;;;;;;;;6.20;4.00;;;;;13.46;53.25;98663.72;5020561;28;8889;-75
2021/12/25 04:23:39;;;;;;;;;4.00;3.40;;;;;13.49;53.15;98654.91;5030648;28;8854;-74
2021/12/25 04:26:08;;;;;;;;;3.80;3.80;;;;;13.55;53.37;98659.97;5021490;28;8839;-76
2021/12/25 04:28:43;;;;;;;;;4.60;3.00;;;;;13.41;54.07;98663.81;4993077;28;8870;-74
2021/12/25 04:31:30;;;;;;;;;2.60;2.60;;;;;13.51;53.60;98660.94;5010200;28;8908;-77
2021/12/25 05:01:55;;;;;;;;;47.40;40.40;;;;;13.15;59.44;98661.81;4970152;28;8961;-76
2021/12/25 05:04:59;;;;;;;;;33.00;30.60;;;;;13.04;59.95;98671.69;4947644;29;8885;-75
2021/12/25 05:07:38;;;;;;;;;25.00;24.00;;;;;13.15;59.91;98681.91;4931439;29;9019;-79
2021/12/25 05:10:08;;;;;;;;;33.80;31.20;;;;;13.07;60.66;98680.34;4885017;29;8919;-76
2021/12/25 05:12:37;;;;;;;;;10.40;9.00;;;;;13.03;60.39;98681.31;4931718;29;8873;-77
2021/12/25 05:15:07;;;;;;;;;17.80;15.80;;;;;13.08;60.60;98681.22;4931560;29;8997;-79
2021/12/25 05:17:36;;;;;;;;;2.40;1.80;;;;;12.88;60.52;98689.53;4913376;29;8875;-77
2021/12/25 05:20:07;;;;;;;;;20.00;17.60;;;;;13.04;61.05;98684.78;4927768;29;8891;-76
2021/12/25 05:22:36;;;;;;;;;5.20;4.80;;;;;13.05;61.21;98687.38;4897603;29;8875;-76
2021/12/25 05:25:06;;;;;;;;;3.40;3.00;;;;;12.83;61.65;98679.16;4928187;29;8886;-76
2021/12/25 05:27:39;;;;;;;;;3.40;2.80;;;;;12.70;62.93;98677.75;4917308;28;9716;-78
2021/12/25 05:30:09;;;;;;;;;4.80;2.40;;;;;12.56;62.67;98685.91;4976825;28;9018;-74
2021/12/25 05:32:50;;;;;;;;;4.00;4.00;;;;;12.60;62.97;98689.31;4969612;28;8864;-76
2021/12/25 05:35:40;;;;;;;;;2.80;2.80;;;;;12.72;62.55;98696.91;4945475;29;8896;-75
2021/12/25 05:38:27;;;;;;;;;8.20;7.40;;;;;12.84;62.12;98698.38;4934554;29;8868;-76
2021/12/25 05:41:26;;;;;;;;;3.00;3.00;;;;;12.75;62.37;98694.19;4926505;29;8957;-76
2021/12/25 05:43:55;;;;;;;;;2.60;2.60;;;;;12.83;62.79;98701.88;4912122;29;9624;-79
2021/12/25 05:46:43;;;;;;;;;3.00;3.00;;;;;12.72;62.37;98704.75;4928075;29;9020;-76
2021/12/25 05:49:13;;;;;;;;;2.60;2.60;;;;;12.67;62.75;98701.38;4911758;29;9580;-77
2021/12/25 05:52:12;;;;;;;;;2.00;2.00;;;;;12.77;63.12;98702.03;4871350;29;8891;-74
2021/12/25 05:54:59;;;;;;;;;2.00;2.00;;;;;12.74;63.65;98702.97;4871340;29;9781;-75
2021/12/25 05:57:43;;;;;;;;;4.80;3.40;;;;;12.63;65.60;98707.56;4857955;29;8883;-76
2021/12/25 06:00:42;;;;;;;;;4.00;4.00;;;;;12.63;65.52;98708.44;4882470;29;9110;-76
2021/12/25 06:03:26;;;;;;;;;4.40;4.20;;;;;12.73;65.56;98706.47;4879497;29;8868;-75
2021/12/25 06:06:10;;;;;;;;;7.60;5.80;;;;;12.68;65.77;98717.03;4865531;29;9019;-76
2021/12/25 06:08:55;;;;;;;;;7.80;7.00;;;;;12.76;65.22;98721.22;4863633;29;9007;-76
2021/12/25 06:11:40;;;;;;;;;8.00;8.00;;;;;12.44;66.28;98722.81;4888083;29;9020;-79
2021/12/25 06:14:19;;;;;;;;;5.20;4.80;;;;;12.59;65.41;98717.25;4852133;29;8898;-75
2021/12/25 06:17:06;;;;;;;;;8.40;8.40;;;;;12.37;66.31;98715.97;4888282;28;8892;-74
2021/12/25 06:19:48;;;;;;;;;4.20;4.20;;;;;12.33;65.64;98706.50;4949220;28;8859;-76
2021/12/25 06:22:41;;;;;;;;;6.60;4.40;;;;;12.29;65.13;98708.31;4949279;28;9011;-75
2021/12/25 06:25:46;;;;;;;;;5.60;4.20;;;;;12.22;65.99;98714.53;4933785;28;8870;-75
2021/12/25 06:28:42;;;;;;;;;4.20;3.80;;;;;12.35;65.64;98716.00;4950241;28;8914;-75
2021/12/25 06:31:34;;;;;;;;;6.40;6.40;;;;;12.27;66.23;98724.00;4965554;28;8881;-75
2021/12/25 06:34:18;;;;;;;;;7.00;5.20;;;;;12.35;65.08;98720.38;4932758;28;8899;-76
2021/12/25 06:37:06;;;;;;;;;8.60;8.00;;;;;12.21;65.71;98713.69;4965402;28;8863;-76
2021/12/25 06:40:01;;;;;;;;;9.20;9.20;;;;;12.27;65.49;98710.09;4949584;28;8879;-75
2021/12/25 06:42:38;;;;;;;;;13.80;10.20;;;;;11.88;66.85;98717.78;4933592;28;8895;-78
2021/12/25 06:45:08;;;;;;;;;7.00;5.40;;;;;12.00;66.69;98715.00;4933459;28;9767;-75
2021/12/25 06:47:37;;;;;;;;;11.80;11.80;;;;;12.02;66.10;98718.44;4933744;28;8918;-77
2021/12/25 06:50:11;;;;;;;;;9.20;8.60;;;;;11.82;67.17;98718.78;4949404;28;8966;-75
2021/12/25 06:53:05;;;;;;;;;13.80;10.20;;;;;12.11;65.68;98714.75;4892467;29;8879;-80
2021/12/25 06:55:52;;;;;;;;;12.60;12.40;;;;;12.28;64.85;98714.41;4877123;29;8909;-75
2021/12/25 06:58:37;;;;;;;;;9.60;8.80;;;;;12.36;64.60;98725.59;4892574;29;8901;-75
2021/12/25 07:01:05;;;;;;;;;9.40;9.00;;;;;12.31;65.02;98740.50;4891541;29;8923;-76
2021/12/25 07:03:34;;;;;;;;;10.00;10.00;;;;;12.28;65.21;98740.56;4888832;29;8870;-78
2021/12/25 07:06:23;;;;;;;;;7.20;7.20;;;;;12.24;65.57;98738.91;4873583;29;8891;-77
2021/12/25 07:09:10;;;;;;;;;8.60;8.20;;;;;12.37;64.81;98737.75;4860069;29;8895;-77
2021/12/25 07:12:13;;;;;;;;;8.00;7.20;;;;;12.54;64.26;98750.47;4865706;29;8857;-77
2021/12/25 07:18:03;;;;;;;;;11.60;10.60;;;;;12.60;64.27;98755.56;4891892;29;8859;-74
2021/12/25 07:43:51;;;;;;;;;10.80;9.80;;;;;12.77;64.22;98776.13;4842292;29;8872;-78
2021/12/25 07:46:33;;;;;;;;;10.60;9.80;;;;;12.88;63.08;98765.44;4910376;29;8998;-76
2021/12/25 07:49:04;;;;;;;;;9.00;9.00;;;;;13.04;62.84;98776.41;4897408;29;8915;-75
2021/12/25 07:51:32;;;;;;;;;12.20;11.00;;;;;13.03;63.32;98761.59;4910710;29;8872;-77
2021/12/25 07:54:01;;;;;;;;;10.60;10.60;;;;;12.82;63.92;98762.97;4909897;29;8908;-76
2021/12/25 07:56:30;;;;;;;;;9.80;9.80;;;;;12.78;64.06;98772.63;4947767;28;9609;-75
2021/12/25 07:59:00;;;;;;;;;14.00;13.00;;;;;12.79;63.78;98771.72;4978790;28;8863;-77
2021/12/25 08:01:29;;;;;;;;;12.80;11.20;;;;;12.79;64.53;98770.88;5009021;28;8841;-74
2021/12/25 08:03:58;;;;;;;;;18.60;16.60;;;;;12.99;63.87;98762.59;5029959;28;8935;-77
2021/12/25 08:06:27;;;;;;;;;16.00;14.80;;;;;12.94;64.48;98754.81;5037117;28;8959;-77
2021/12/25 08:08:56;;;;;;;;;18.40;18.00;;;;;12.81;65.47;98762.06;5043749;28;8868;-80
2021/12/25 08:11:24;;;;;;;;;18.60;18.40;;;;;12.86;64.60;98768.06;5034918;28;8860;-76
2021/12/25 08:13:53;;;;;;;;;14.80;12.60;;;;;12.88;64.29;98750.59;5031911;28;8987;-78
2021/12/25 08:16:23;;;;;;;;;17.80;16.60;;;;;12.70;65.14;98758.84;5009090;28;8888;-78
2021/12/25 08:18:52;;;;;;;;;21.00;17.20;;;;;12.89;64.01;98764.50;5024635;28;8878;-80
2021/12/25 08:21:47;;;;;;;;;20.60;17.80;;;;;12.99;64.13;98755.56;5031530;28;8857;-78
2021/12/25 08:24:35;;;;;;;;;18.00;15.60;;;;;13.12;63.38;98771.88;5040875;28;9167;-78
2021/12/25 08:27:33;;;;;;;;;20.00;16.00;;;;;13.01;64.42;98764.25;4966718;28;9677;-79
2021/12/25 08:30:35;;;;;;;;;22.40;19.20;;;;;12.94;65.08;98757.44;4928374;29;8936;-79
2021/12/25 08:33:24;;;;;;;;;25.60;23.40;;;;;12.86;65.25;98760.22;4923771;29;8872;-81
2021/12/25 08:35:56;;;;;;;;;22.00;18.80;;;;;12.61;65.98;98759.06;4927214;29;8892;-79
2021/12/25 08:38:24;;;;;;;;;28.20;23.00;;;;;12.68;65.65;98760.63;4925862;29;9705;-77
2021/12/25 08:40:55;;;;;;;;;28.20;24.00;;;;;12.56;66.78;98767.00;4911551;29;8877;-77
2021/12/25 08:43:47;;;;;;;;;25.60;24.60;;;;;12.71;66.01;98763.19;4940543;29;8872;-78
2021/12/25 08:46:18;;;;;;;;;24.00;22.60;;;;;12.81;65.16;98762.06;4928155;29;8931;-79
2021/12/25 08:48:49;;;;;;;;;26.20;25.60;;;;;12.79;64.79;98752.56;4903617;29;8864;-80
2021/12/25 08:51:17;;;;;;;;;23.20;21.00;;;;;12.82;64.44;98755.09;4929200;29;8853;-79
2021/12/25 08:53:46;;;;;;;;;28.40;27.20;;;;;12.87;64.11;98756.72;4909333;29;9077;-76
2021/12/25 08:56:15;;;;;;;;;25.80;21.60;;;;;13.11;63.05;98754.44;4941458;29;8958;-79
2021/12/25 08:58:43;;;;;;;;;30.80;30.80;;;;;13.22;62.74;98760.25;4928233;29;8978;-79
2021/12/25 09:01:12;;;;;;;;;35.00;30.20;;;;;13.26;62.60;98764.53;4895935;29;8876;-78
2021/12/25 09:03:41;;;;;;;;;26.00;26.00;;;;;13.42;62.97;98748.47;4919280;28;8865;-77
2021/12/25 09:06:11;;;;;;;;;23.80;22.40;;;;;13.31;62.12;98740.00;4956240;28;8854;-77
2021/12/25 09:08:39;;;;;;;;;27.00;26.60;;;;;13.30;62.34;98739.16;4985582;28;9044;-77
2021/12/25 09:11:08;;;;;;;;;28.40;25.20;;;;;13.36;62.01;98733.75;4969394;28;9604;-79
2021/12/25 09:13:37;;;;;;;;;25.00;25.00;;;;;13.37;61.86;98739.88;4969789;28;8912;-77
2021/12/25 09:16:06;;;;;;;;;26.40;24.60;;;;;13.33;61.55;98727.78;5036636;28;8890;-80
2021/12/25 09:18:35;;;;;;;;;30.80;26.40;;;;;13.49;60.87;98736.94;4984957;28;8860;-79
2021/12/25 09:21:04;;;;;;;;;29.80;26.40;;;;;13.44;61.19;98729.22;4969157;28;8933;-79
2021/12/25 09:23:34;;;;;;;;;27.00;24.80;;;;;13.60;60.71;98726.19;4969237;28;8868;-77
2021/12/25 09:26:03;;;;;;;;;18.20;18.20;;;;;13.68;59.75;98718.13;4985587;28;9674;-79
2021/12/25 09:28:31;;;;;;;;;23.20;21.60;;;;;13.74;59.66;98720.59;4985541;28;8865;-78
2021/12/25 09:31:00;;;;;;;;;29.00;26.20;;;;;13.81;58.72;98715.13;4985389;28;8975;-79
2021/12/25 09:33:30;;;;;;;;;25.40;23.60;;;;;13.80;58.65;98717.81;4988713;28;8963;-78
2021/12/25 09:36:02;;;;;;;;;19.60;19.00;;;;;13.77;58.70;98702.16;4987356;28;8969;-79
2021/12/25 09:38:31;;;;;;;;;21.40;19.20;;;;;13.80;58.74;98708.19;4988510;28;8971;-78
2021/12/25 09:41:02;;;;;;;;;23.20;20.20;;;;;13.87;58.93;98708.00;4956218;28;8852;-76
2021/12/25 09:43:31;;;;;;;;;21.40;18.60;;;;;14.09;58.49;98705.66;4988602;28;8865;-78
2021/12/25 09:46:00;;;;;;;;;20.20;19.40;;;;;14.21;58.06;98703.56;4988854;28;8868;-78
2021/12/25 09:48:29;;;;;;;;;18.60;18.00;;;;;14.09;58.13;98703.03;4956975;28;8849;-77
2021/12/25 09:50:58;;;;;;;;;23.60;21.80;;;;;14.20;57.75;98704.44;5021660;28;8899;-78
2021/12/25 09:53:28;;;;;;;;;19.60;18.60;;;;;14.35;57.76;98710.16;5025824;28;8951;-76
2021/12/25 09:55:57;;;;;;;;;24.00;23.60;;;;;14.51;57.48;98700.06;5020334;28;10149;-78
2021/12/25 09:58:27;;;;;;;;;25.00;20.40;;;;;14.58;57.29;98697.25;5025716;28;8884;-76
2021/12/25 10:00:57;;;;;;;;;19.80;19.00;;;;;14.64;56.77;98693.56;5021466;28;9007;-77
2021/12/25 10:03:42;;;;;;;;;20.60;19.40;;;;;14.54;56.25;98689.50;5029113;28;9578;-76
2021/12/25 10:06:29;;;;;;;;;17.20;17.00;;;;;14.67;56.03;98690.84;5026264;28;8866;-78
2021/12/25 10:08:58;;;;;;;;;20.20;18.40;;;;;14.74;56.14;98686.25;5024534;28;8917;-78
2021/12/25 10:11:27;;;;;;;;;17.40;17.40;;;;;14.92;56.12;98687.47;5027850;28;8860;-78
2021/12/25 10:13:57;;;;;;;;;42.00;36.00;;;;;14.77;55.73;98684.41;5029085;28;8972;-79
2021/12/25 10:16:27;;;;;;;;;16.60;16.00;;;;;14.90;55.72;98670.91;5011731;28;8876;-79
2021/12/25 10:19:13;;;;;;;;;20.60;19.60;;;;;14.85;55.19;98668.41;4995023;28;8848;-77
2021/12/25 10:21:42;;;;;;;;;21.80;20.40;;;;;14.79;56.26;98673.88;5029135;28;8875;-77
2021/12/25 10:24:16;;;;;;;;;20.40;18.80;;;;;14.87;55.42;98679.72;5012590;28;8867;-79
2021/12/25 10:26:48;;;;;;;;;20.80;18.60;;;;;14.93;55.67;98669.03;5025721;28;8960;-78
2021/12/25 10:29:22;;;;;;;;;19.40;18.40;;;;;15.13;54.79;98675.41;5023156;28;8840;-76
2021/12/25 10:31:52;;;;;;;;;16.00;14.80;;;;;15.26;53.50;98679.31;5028419;28;8856;-77
2021/12/25 10:34:23;;;;;;;;;19.00;17.80;;;;;15.31;53.80;98673.91;5012503;28;8875;-77
2021/12/25 10:36:52;;;;;;;;;18.80;17.60;;;;;15.41;53.28;98670.06;5009614;28;8969;-78
2021/12/25 10:39:24;;;;;;;;;17.60;15.20;;;;;15.62;52.46;98659.72;5025911;28;8857;-80
2021/12/25 10:41:55;;;;;;;;;18.80;15.60;;;;;15.57;52.63;98658.09;5007048;28;9075;-79
2021/12/25 10:44:27;;;;;;;;;17.00;17.00;;;;;15.65;52.24;98644.72;4993146;28;8955;-79
2021/12/25 10:46:59;;;;;;;;;10.40;9.20;;;;;15.55;51.85;98653.81;5026058;28;9309;-78
2021/12/25 10:49:30;;;;;;;;;21.60;16.60;;;;;15.64;51.86;98644.75;5014162;28;8846;-80
2021/12/25 10:52:10;;;;;;;;;19.60;18.00;;;;;15.68;51.42;98644.59;5013211;28;9485;-78
2021/12/25 10:54:42;;;;;;;;;16.40;13.00;;;;;15.70;51.81;98653.28;4951898;28;8826;-78
2021/12/25 10:57:11;;;;;;;;;13.00;12.00;;;;;15.80;51.96;98645.94;4987059;28;9059;-78
2021/12/25 10:59:47;;;;;;;;;17.20;16.20;;;;;15.99;51.90;98640.84;4983656;28;8875;-75
2021/12/25 11:02:37;;;;;;;;;16.80;14.80;;;;;16.01;51.10;98627.66;4985958;28;8873;-79
2021/12/25 11:05:22;;;;;;;;;17.40;17.40;;;;;15.79;51.11;98631.94;4890396;29;8916;-77
2021/12/25 11:08:04;;;;;;;;;20.80;17.00;;;;;15.70;51.02;98624.34;4891531;29;9027;-78
2021/12/25 11:10:41;;;;;;;;;22.40;21.60;;;;;15.64;50.98;98626.38;4875088;29;8895;-77
2021/12/25 11:13:18;;;;;;;;;17.60;16.40;;;;;15.77;51.12;98617.16;4875416;29;8875;-78
2021/12/25 11:15:49;;;;;;;;;15.40;15.40;;;;;15.65;51.57;98615.81;4909012;29;9701;-77
2021/12/25 11:18:19;;;;;;;;;18.00;17.20;;;;;15.54;51.57;98602.19;4907962;29;9597;-79
2021/12/25 11:20:47;;;;;;;;;19.00;18.00;;;;;15.15;53.20;98611.41;4908895;29;8896;-79
2021/12/25 11:23:17;;;;;;;;;18.60;17.60;;;;;15.45;52.64;98603.38;4908606;29;9074;-78
2021/12/25 11:25:46;;;;;;;;;21.60;21.00;;;;;15.18;52.62;98610.44;4906859;29;8875;-77
2021/12/25 11:28:18;;;;;;;;;19.60;18.60;;;;;15.32;52.16;98612.59;4893194;29;9650;-78
2021/12/25 11:30:52;;;;;;;;;27.20;21.60;;;;;15.34;52.62;98600.25;4878163;29;8873;-77
2021/12/25 11:33:21;;;;;;;;;20.00;15.80;;;;;15.29;52.49;98594.31;4893756;29;8900;-78
2021/12/25 11:35:50;;;;;;;;;24.60;23.40;;;;;15.44;52.38;98599.00;4920003;28;8867;-77
2021/12/25 11:38:19;;;;;;;;;26.60;24.60;;;;;15.43;52.45;98594.69;4950857;28;8885;-80
2021/12/25 11:40:52;;;;;;;;;26.20;24.00;;;;;15.27;52.85;98596.13;4951113;28;8881;-79
2021/12/25 11:43:36;;;;;;;;;24.40;24.00;;;;;15.24;53.06;98594.47;5007615;28;8866;-78
2021/12/25 11:46:07;;;;;;;;;19.60;16.20;;;;;15.38;52.65;98589.56;5007555;28;8866;-79
2021/12/25 11:48:38;;;;;;;;;23.60;23.60;;;;;15.46;52.99;98591.06;5010660;28;8853;-79
2021/12/25 11:51:08;;;;;;;;;50.00;42.00;;;;;15.43;52.70;98589.44;5005544;28;8879;-77
2021/12/25 11:54:04;;;;;;;;;18.00;17.40;;;;;15.36;52.81;98582.66;4992108;28;8901;-77
2021/12/25 11:56:38;;;;;;;;;30.60;27.00;;;;;15.32;53.20;98587.19;5005196;28;8860;-78
2021/12/25 11:59:12;;;;;;;;;20.60;19.80;;;;;15.40;53.11;98594.78;5037075;28;8836;-79
2021/12/25 12:01:46;;;;;;;;;22.00;20.40;;;;;15.36;53.54;98583.53;5000482;28;9573;-78
2021/12/25 12:04:21;;;;;;;;;31.60;31.20;;;;;15.14;54.80;98583.44;5001043;28;8865;-78
2021/12/25 12:07:13;;;;;;;;;28.40;25.60;;;;;14.89;54.68;98578.16;5009068;28;8880;-78
2021/12/25 12:10:20;;;;;;;;;40.80;35.20;;;;;14.74;55.71;98584.75;4945713;28;8879;-80
2021/12/25 12:13:29;;;;;;;;;34.40;32.80;;;;;14.80;55.79;98584.56;4944930;28;9626;-78
2021/12/25 12:16:37;;;;;;;;;9.80;7.40;;;;;14.82;56.11;98584.53;4919881;28;8927;-77
2021/12/25 12:19:46;;;;;;;;;29.60;25.20;;;;;14.89;55.98;98582.53;4940070;29;8882;-79
2021/12/25 12:28:19;;;;;;;;;40.75;35.25;;;;;15.27;55.79;98596.97;4908348;29;8873;-78
2021/12/25 12:30:53;;;;;;;;;61.50;49.00;;;;;15.29;55.85;98603.06;4908621;29;8959;-78
2021/12/25 12:33:33;;;;;;;;;52.00;41.75;;;;;15.40;55.60;98597.41;4893140;29;8885;-79
2021/12/25 12:36:05;;;;;;;;;49.75;39.25;;;;;15.38;55.91;98593.97;4891998;29;8877;-77
2021/12/25 12:38:39;;;;;;;;;55.25;46.50;;;;;15.52;55.80;98599.63;4907892;29;8885;-79
2021/12/25 12:41:38;;;;;;;;;48.75;39.25;;;;;15.73;55.46;98600.63;4918849;28;8853;-81
2021/12/25 12:44:13;;;;;;;;;48.50;41.75;;;;;15.79;55.31;98582.00;4856756;29;8904;-73
2021/12/25 12:47:03;;;;;;;;;50.50;41.75;;;;;15.92;55.84;98576.28;4920708;29;8884;-74
2021/12/25 12:49:49;;;;;;;;;49.75;39.75;;;;;15.92;55.76;98579.78;4899644;29;8874;-74
2021/12/25 12:52:25;;;;;;;;;40.00;35.50;;;;;16.03;55.18;98573.22;4925311;29;8886;-72
2021/12/25 12:54:56;;;;;;;;;40.00;36.50;;;;;16.00;54.78;98573.38;4943598;28;8857;-73
2021/12/25 12:57:30;;;;;;;;;33.20;32.40;;;;;15.93;54.56;98568.31;4965427;28;8888;-75
2021/12/25 13:00:02;;;;;;;;;39.00;35.00;;;;;15.83;54.96;98577.47;4965967;28;9012;-74
2021/12/25 13:02:38;;;;;;;;;47.00;39.75;;;;;15.76;55.39;98582.13;4965968;28;8876;-75
2021/12/25 13:05:08;;;;;;;;;53.50;45.50;;;;;15.77;54.88;98590.88;4958673;28;9054;-75
2021/12/25 13:07:41;;;;;;;;;47.00;39.25;;;;;15.77;55.11;98596.13;4948372;28;8974;-73
2021/12/25 13:10:18;;;;;;;;;44.25;36.75;;;;;15.44;55.98;98599.00;4965395;28;8875;-74
2021/12/25 13:12:49;;;;;;;;;43.00;37.50;;;;;15.39;56.80;98588.69;4965552;28;9550;-75
2021/12/25 13:15:21;;;;;;;;;49.00;39.50;;;;;15.28;56.88;98597.84;4949475;28;8859;-74
2021/12/25 13:17:52;;;;;;;;;22.25;21.25;;;;;15.20;57.40;98598.13;4965843;28;8901;-74
2021/12/25 13:20:35;;;;;;;;;35.25;33.00;;;;;15.29;57.23;98594.31;4994476;28;8873;-74
2021/12/25 13:23:08;;;;;;;;;37.00;33.00;;;;;15.35;56.73;98592.34;5029361;28;9024;-74
2021/12/25 13:25:43;;;;;;;;;24.60;24.00;;;;;15.16;57.51;98599.13;5028942;28;8862;-75
2021/12/25 13:28:12;;;;;;;;;27.50;27.50;;;;;15.16;57.65;98607.00;4997511;28;8866;-74
2021/12/25 13:30:43;;;;;;;;;31.40;29.20;;;;;15.20;57.57;98608.63;5028982;28;8874;-76
2021/12/25 13:33:15;;;;;;;;;163.50;151.75;;;;;15.33;57.51;98615.16;5047360;28;8983;-74
2021/12/25 13:35:43;;;;;;;;;25.20;23.40;;;;;15.01;57.70;98618.91;5028877;28;11666;-74
2021/12/25 13:38:17;;;;;;;;;18.75;16.75;;;;;15.12;57.95;98616.78;4996197;28;9632;-74